sensor_id;sensor_type;location;lat;lon;timestamp;temperature;humidity
16846;DHT22;8539;53.188;8.696;2022-12-18T00:02:03;-6.80;99.90
16846;DHT22;8539;53.188;8.696;2022-12-18T00:04:29;-6.90;99.90
16846;DHT22;8539;53.188;8.696;2022-12-18T00:06:56;-6.90;99.90
16846;DHT22;8539;53.188;8.696;2022-12-18T00:09:22;-6.90;99.90
16846;DHT22;8539;53.188;8.696;2022-12-18T00:11:48;-7.00;99.90
16846;DHT22;8539;53.188;8.696;2022-12-18T00:14:14;-7.00;99.90
16846;DHT22;8539;53.188;8.696;2022-12-18T00:16:44;-7.10;99.90
16846;DHT22;8539;53.188;8.696;2022-12-18T00:19:11;-7.10;99.90
16846;DHT22;8539;53.188;8.696;2022-12-18T00:21:43;-7.20;99.90
16846;DHT22;8539;53.188;8.696;2022-12-18T00:24:11;-7.20;99.90
16846;DHT22;8539;53.188;8.696;2022-12-18T00:26:38;-7.10;99.90
16846;DHT22;8539;53.188;8.696;2022-12-18T00:29:11;-7.20;99.90
16846;DHT22;8539;53.188;8.696;2022-12-18T00:31:40;-7.20;99.90
16846;DHT22;8539;53.188;8.696;2022-12-18T00:34:10;-7.20;99.90
16846;DHT22;8539;53.188;8.696;2022-12-18T00:36:37;-7.20;99.90
16846;DHT22;8539;53.188;8.696;2022-12-18T00:39:04;-7.30;99.90
16846;DHT22;8539;53.188;8.696;2022-12-18T00:41:31;-7.30;99.90
16846;DHT22;8539;53.188;8.696;2022-12-18T00:44:17;-7.30;99.90
16846;DHT22;8539;53.188;8.696;2022-12-18T00:46:45;-7.30;99.90
16846;DHT22;8539;53.188;8.696;2022-12-18T00:49:11;-7.40;99.90
16846;DHT22;8539;53.188;8.696;2022-12-18T00:51:38;-7.40;99.90
16846;DHT22;8539;53.188;8.696;2022-12-18T00:54:04;-7.40;99.90
16846;DHT22;8539;53.188;8.696;2022-12-18T00:56:31;-7.40;99.90
16846;DHT22;8539;53.188;8.696;2022-12-18T00:58:57;-7.50;99.90
16846;DHT22;8539;53.188;8.696;2022-12-18T01:01:23;-7.40;99.90
16846;DHT22;8539;53.188;8.696;2022-12-18T01:03:49;-7.40;99.90
16846;DHT22;8539;53.188;8.696;2022-12-18T01:06:16;-7.40;99.90
16846;DHT22;8539;53.188;8.696;2022-12-18T01:08:43;-7.40;99.90
16846;DHT22;8539;53.188;8.696;2022-12-18T01:11:11;-7.40;99.90
16846;DHT22;8539;53.188;8.696;2022-12-18T01:13:39;-7.30;99.90
16846;DHT22;8539;53.188;8.696;2022-12-18T01:16:05;-7.40;99.90
16846;DHT22;8539;53.188;8.696;2022-12-18T01:18:31;-7.40;99.90
16846;DHT22;8539;53.188;8.696;2022-12-18T01:20:58;-7.40;99.90
16846;DHT22;8539;53.188;8.696;2022-12-18T01:23:24;-7.30;99.90
16846;DHT22;8539;53.188;8.696;2022-12-18T01:25:53;-7.30;99.90
16846;DHT22;8539;53.188;8.696;2022-12-18T01:28:19;-7.20;99.90
16846;DHT22;8539;53.188;8.696;2022-12-18T01:30:45;-6.50;99.90
16846;DHT22;8539;53.188;8.696;2022-12-18T01:33:11;-7.20;99.90
16846;DHT22;8539;53.188;8.696;2022-12-18T01:35:43;-7.10;99.90
16846;DHT22;8539;53.188;8.696;2022-12-18T01:38:09;-7.10;99.90
16846;DHT22;8539;53.188;8.696;2022-12-18T01:40:35;-7.10;99.90
16846;DHT22;8539;53.188;8.696;2022-12-18T01:43:04;-7.10;99.90
16846;DHT22;8539;53.188;8.696;2022-12-18T01:45:32;-7.10;99.90
16846;DHT22;8539;53.188;8.696;2022-12-18T01:48:02;-7.10;99.90
16846;DHT22;8539;53.188;8.696;2022-12-18T01:50:40;-7.10;99.90
16846;DHT22;8539;53.188;8.696;2022-12-18T01:53:15;-7.10;99.90
16846;DHT22;8539;53.188;8.696;2022-12-18T01:55:52;-7.10;99.90
16846;DHT22;8539;53.188;8.696;2022-12-18T01:58:23;-7.10;99.90
16846;DHT22;8539;53.188;8.696;2022-12-18T02:00:50;-7.20;99.90
16846;DHT22;8539;53.188;8.696;2022-12-18T02:03:16;-6.50;99.90
16846;DHT22;8539;53.188;8.696;2022-12-18T02:06:13;-7.20;99.90
16846;DHT22;8539;53.188;8.696;2022-12-18T02:08:56;-7.20;99.90
16846;DHT22;8539;53.188;8.696;2022-12-18T02:11:53;-7.30;99.90
16846;DHT22;8539;53.188;8.696;2022-12-18T02:14:46;-7.40;99.90
16846;DHT22;8539;53.188;8.696;2022-12-18T02:17:22;-7.40;99.90
16846;DHT22;8539;53.188;8.696;2022-12-18T02:20:13;-7.40;99.90
16846;DHT22;8539;53.188;8.696;2022-12-18T02:28:01;-7.40;99.90
16846;DHT22;8539;53.188;8.696;2022-12-18T02:30:31;-7.40;99.90
16846;DHT22;8539;53.188;8.696;2022-12-18T02:32:59;-7.40;99.90
16846;DHT22;8539;53.188;8.696;2022-12-18T02:35:29;-7.40;99.90
16846;DHT22;8539;53.188;8.696;2022-12-18T02:37:57;-7.40;99.90
16846;DHT22;8539;53.188;8.696;2022-12-18T02:40:26;-7.40;99.90
16846;DHT22;8539;53.188;8.696;2022-12-18T02:42:52;-7.40;99.90
16846;DHT22;8539;53.188;8.696;2022-12-18T02:45:18;-7.40;99.90
16846;DHT22;8539;53.188;8.696;2022-12-18T02:47:47;-7.50;99.90
16846;DHT22;8539;53.188;8.696;2022-12-18T02:50:35;-7.40;99.90
16846;DHT22;8539;53.188;8.696;2022-12-18T02:56:11;-7.50;99.90
16846;DHT22;8539;53.188;8.696;2022-12-18T02:59:02;-7.50;99.90
16846;DHT22;8539;53.188;8.696;2022-12-18T03:01:35;-7.60;99.90
16846;DHT22;8539;53.188;8.696;2022-12-18T03:04:09;-7.60;99.90
16846;DHT22;8539;53.188;8.696;2022-12-18T03:06:45;-7.60;99.90
16846;DHT22;8539;53.188;8.696;2022-12-18T03:09:19;-7.60;99.90
16846;DHT22;8539;53.188;8.696;2022-12-18T03:11:53;-7.60;99.90
16846;DHT22;8539;53.188;8.696;2022-12-18T03:14:41;-7.60;99.90
16846;DHT22;8539;53.188;8.696;2022-12-18T03:17:14;-7.50;99.90
16846;DHT22;8539;53.188;8.696;2022-12-18T03:19:43;-7.50;99.90
16846;DHT22;8539;53.188;8.696;2022-12-18T03:22:09;-7.50;99.90
16846;DHT22;8539;53.188;8.696;2022-12-18T03:24:36;-7.50;99.90
16846;DHT22;8539;53.188;8.696;2022-12-18T03:27:11;-7.50;99.90
16846;DHT22;8539;53.188;8.696;2022-12-18T03:29:46;-7.60;99.90
16846;DHT22;8539;53.188;8.696;2022-12-18T03:32:23;-7.60;99.90
16846;DHT22;8539;53.188;8.696;2022-12-18T03:34:53;-7.60;99.90
16846;DHT22;8539;53.188;8.696;2022-12-18T03:37:21;-7.60;99.90
16846;DHT22;8539;53.188;8.696;2022-12-18T03:39:47;-7.60;99.90
16846;DHT22;8539;53.188;8.696;2022-12-18T03:42:25;-7.70;99.90
16846;DHT22;8539;53.188;8.696;2022-12-18T03:47:28;-7.70;99.90
16846;DHT22;8539;53.188;8.696;2022-12-18T03:50:05;-7.70;99.90
16846;DHT22;8539;53.188;8.696;2022-12-18T03:55:15;-7.70;99.90
16846;DHT22;8539;53.188;8.696;2022-12-18T03:57:42;-7.80;99.90
16846;DHT22;8539;53.188;8.696;2022-12-18T04:00:13;-7.80;99.90
16846;DHT22;8539;53.188;8.696;2022-12-18T04:02:44;-7.80;99.90
16846;DHT22;8539;53.188;8.696;2022-12-18T04:05:11;-7.80;99.90
16846;DHT22;8539;53.188;8.696;2022-12-18T04:07:38;-7.90;99.90
16846;DHT22;8539;53.188;8.696;2022-12-18T04:10:07;-7.90;99.90
16846;DHT22;8539;53.188;8.696;2022-12-18T04:12:37;-7.90;99.90
16846;DHT22;8539;53.188;8.696;2022-12-18T04:15:04;-7.90;99.90
16846;DHT22;8539;53.188;8.696;2022-12-18T04:17:30;-8.00;99.90
16846;DHT22;8539;53.188;8.696;2022-12-18T04:19:56;-8.00;99.90
16846;DHT22;8539;53.188;8.696;2022-12-18T04:22:22;-8.00;99.90
16846;DHT22;8539;53.188;8.696;2022-12-18T04:24:48;-8.00;99.90
16846;DHT22;8539;53.188;8.696;2022-12-18T04:27:14;-8.10;99.90
16846;DHT22;8539;53.188;8.696;2022-12-18T04:29:40;-8.00;99.90
16846;DHT22;8539;53.188;8.696;2022-12-18T04:32:07;-8.10;99.90
16846;DHT22;8539;53.188;8.696;2022-12-18T04:34:37;-8.10;99.90
16846;DHT22;8539;53.188;8.696;2022-12-18T04:37:03;-8.10;99.90
16846;DHT22;8539;53.188;8.696;2022-12-18T04:39:29;-8.10;99.90
16846;DHT22;8539;53.188;8.696;2022-12-18T04:41:55;-8.10;99.90
16846;DHT22;8539;53.188;8.696;2022-12-18T04:44:21;-8.10;99.90
16846;DHT22;8539;53.188;8.696;2022-12-18T04:46:47;-8.00;99.90
16846;DHT22;8539;53.188;8.696;2022-12-18T04:49:13;-8.00;99.90
16846;DHT22;8539;53.188;8.696;2022-12-18T04:51:39;-8.00;99.90
16846;DHT22;8539;53.188;8.696;2022-12-18T04:54:05;-8.00;99.90
16846;DHT22;8539;53.188;8.696;2022-12-18T04:56:31;-8.00;99.90
16846;DHT22;8539;53.188;8.696;2022-12-18T04:58:57;-8.00;99.90
16846;DHT22;8539;53.188;8.696;2022-12-18T05:01:23;-8.00;99.90
16846;DHT22;8539;53.188;8.696;2022-12-18T05:03:51;-8.00;99.90
16846;DHT22;8539;53.188;8.696;2022-12-18T05:06:17;-8.00;99.90
16846;DHT22;8539;53.188;8.696;2022-12-18T05:08:43;-8.00;99.90
16846;DHT22;8539;53.188;8.696;2022-12-18T05:11:12;-8.00;99.90
16846;DHT22;8539;53.188;8.696;2022-12-18T05:13:39;-8.00;99.90
16846;DHT22;8539;53.188;8.696;2022-12-18T05:16:05;-8.00;99.90
16846;DHT22;8539;53.188;8.696;2022-12-18T05:18:32;-8.00;99.90
16846;DHT22;8539;53.188;8.696;2022-12-18T05:20:58;-7.90;99.90
16846;DHT22;8539;53.188;8.696;2022-12-18T05:23:24;-8.00;99.90
16846;DHT22;8539;53.188;8.696;2022-12-18T05:28:18;-8.00;99.90
16846;DHT22;8539;53.188;8.696;2022-12-18T05:30:51;-8.00;99.90
16846;DHT22;8539;53.188;8.696;2022-12-18T05:33:21;-8.00;99.90
16846;DHT22;8539;53.188;8.696;2022-12-18T05:35:54;-8.00;99.90
16846;DHT22;8539;53.188;8.696;2022-12-18T05:38:22;-8.00;99.90
16846;DHT22;8539;53.188;8.696;2022-12-18T05:40:49;-8.00;99.90
16846;DHT22;8539;53.188;8.696;2022-12-18T05:43:16;-7.90;99.90
16846;DHT22;8539;53.188;8.696;2022-12-18T05:45:45;-8.00;99.90
16846;DHT22;8539;53.188;8.696;2022-12-18T05:48:11;-8.00;99.90
16846;DHT22;8539;53.188;8.696;2022-12-18T05:50:40;-7.90;99.90
16846;DHT22;8539;53.188;8.696;2022-12-18T05:53:07;-8.00;99.90
16846;DHT22;8539;53.188;8.696;2022-12-18T05:55:37;-8.00;99.90
16846;DHT22;8539;53.188;8.696;2022-12-18T05:58:05;-8.00;99.90
16846;DHT22;8539;53.188;8.696;2022-12-18T06:00:35;-8.00;99.90
16846;DHT22;8539;53.188;8.696;2022-12-18T06:03:01;-8.00;99.90
16846;DHT22;8539;53.188;8.696;2022-12-18T06:05:27;-8.00;99.90
16846;DHT22;8539;53.188;8.696;2022-12-18T06:07:53;-8.00;99.90
16846;DHT22;8539;53.188;8.696;2022-12-18T06:10:19;-8.00;99.90
16846;DHT22;8539;53.188;8.696;2022-12-18T06:12:45;-7.90;99.90
16846;DHT22;8539;53.188;8.696;2022-12-18T06:15:11;-8.00;99.90
16846;DHT22;8539;53.188;8.696;2022-12-18T06:17:37;-8.00;99.90
16846;DHT22;8539;53.188;8.696;2022-12-18T06:20:04;-8.10;99.90
16846;DHT22;8539;53.188;8.696;2022-12-18T06:22:32;-8.10;99.90
16846;DHT22;8539;53.188;8.696;2022-12-18T06:24:58;-8.20;99.90
16846;DHT22;8539;53.188;8.696;2022-12-18T06:27:25;-8.20;99.90
16846;DHT22;8539;53.188;8.696;2022-12-18T06:29:51;-8.20;99.90
16846;DHT22;8539;53.188;8.696;2022-12-18T06:32:17;-8.20;99.90
16846;DHT22;8539;53.188;8.696;2022-12-18T06:34:43;-8.30;99.90
16846;DHT22;8539;53.188;8.696;2022-12-18T06:37:09;-8.30;99.90
16846;DHT22;8539;53.188;8.696;2022-12-18T06:39:35;-8.40;99.90
16846;DHT22;8539;53.188;8.696;2022-12-18T06:42:01;-8.40;99.90
16846;DHT22;8539;53.188;8.696;2022-12-18T06:44:27;-8.30;99.90
16846;DHT22;8539;53.188;8.696;2022-12-18T06:46:53;-8.30;99.90
16846;DHT22;8539;53.188;8.696;2022-12-18T06:49:19;-8.30;99.90
16846;DHT22;8539;53.188;8.696;2022-12-18T06:51:45;-8.30;99.90
16846;DHT22;8539;53.188;8.696;2022-12-18T06:54:11;-8.30;99.90
16846;DHT22;8539;53.188;8.696;2022-12-18T06:56:38;-8.30;99.90
16846;DHT22;8539;53.188;8.696;2022-12-18T06:59:04;-8.30;99.90
16846;DHT22;8539;53.188;8.696;2022-12-18T07:01:30;-8.30;99.90
16846;DHT22;8539;53.188;8.696;2022-12-18T07:03:57;-8.30;99.90
16846;DHT22;8539;53.188;8.696;2022-12-18T07:06:25;-8.40;99.90
16846;DHT22;8539;53.188;8.696;2022-12-18T07:08:52;-8.40;99.90
16846;DHT22;8539;53.188;8.696;2022-12-18T07:11:18;-8.40;99.90
16846;DHT22;8539;53.188;8.696;2022-12-18T07:13:45;-8.40;99.90
16846;DHT22;8539;53.188;8.696;2022-12-18T07:16:19;-8.40;99.90
16846;DHT22;8539;53.188;8.696;2022-12-18T07:18:45;-8.40;99.90
16846;DHT22;8539;53.188;8.696;2022-12-18T07:21:14;-8.40;99.90
16846;DHT22;8539;53.188;8.696;2022-12-18T07:23:41;-8.40;99.90
16846;DHT22;8539;53.188;8.696;2022-12-18T07:26:09;-8.40;99.90
16846;DHT22;8539;53.188;8.696;2022-12-18T07:28:37;-8.40;99.90
16846;DHT22;8539;53.188;8.696;2022-12-18T07:31:05;-8.40;99.90
16846;DHT22;8539;53.188;8.696;2022-12-18T07:33:33;-8.40;99.90
16846;DHT22;8539;53.188;8.696;2022-12-18T07:36:10;-8.40;99.90
16846;DHT22;8539;53.188;8.696;2022-12-18T07:38:36;-8.40;99.90
16846;DHT22;8539;53.188;8.696;2022-12-18T07:41:08;-8.30;99.90
16846;DHT22;8539;53.188;8.696;2022-12-18T07:43:35;-8.40;99.90
16846;DHT22;8539;53.188;8.696;2022-12-18T07:46:01;-8.30;99.90
16846;DHT22;8539;53.188;8.696;2022-12-18T07:48:28;-8.30;99.90
16846;DHT22;8539;53.188;8.696;2022-12-18T07:51:01;-8.40;99.90
16846;DHT22;8539;53.188;8.696;2022-12-18T07:53:28;-8.30;99.90
16846;DHT22;8539;53.188;8.696;2022-12-18T07:56:00;-8.30;99.90
16846;DHT22;8539;53.188;8.696;2022-12-18T07:58:28;-8.30;99.90
16846;DHT22;8539;53.188;8.696;2022-12-18T08:01:09;-8.30;99.90
16846;DHT22;8539;53.188;8.696;2022-12-18T08:03:36;-8.30;99.90
16846;DHT22;8539;53.188;8.696;2022-12-18T08:06:03;-8.30;99.90
16846;DHT22;8539;53.188;8.696;2022-12-18T08:08:30;-8.20;99.90
16846;DHT22;8539;53.188;8.696;2022-12-18T08:10:57;-8.20;99.90
16846;DHT22;8539;53.188;8.696;2022-12-18T08:13:23;-8.20;99.90
16846;DHT22;8539;53.188;8.696;2022-12-18T08:16:01;-8.20;99.90
16846;DHT22;8539;53.188;8.696;2022-12-18T08:18:28;-8.20;99.90
16846;DHT22;8539;53.188;8.696;2022-12-18T08:20:54;-8.10;99.90
16846;DHT22;8539;53.188;8.696;2022-12-18T08:23:21;-8.10;99.90
16846;DHT22;8539;53.188;8.696;2022-12-18T08:25:47;-8.00;99.90
16846;DHT22;8539;53.188;8.696;2022-12-18T08:28:16;-7.90;99.90
16846;DHT22;8539;53.188;8.696;2022-12-18T08:30:42;-7.90;99.90
16846;DHT22;8539;53.188;8.696;2022-12-18T08:33:08;-7.80;99.90
16846;DHT22;8539;53.188;8.696;2022-12-18T08:35:35;-7.80;99.90
16846;DHT22;8539;53.188;8.696;2022-12-18T08:38:02;-7.70;99.90
16846;DHT22;8539;53.188;8.696;2022-12-18T08:40:30;-7.70;99.90
16846;DHT22;8539;53.188;8.696;2022-12-18T08:42:58;-7.60;99.90
16846;DHT22;8539;53.188;8.696;2022-12-18T08:45:43;-7.50;99.90
16846;DHT22;8539;53.188;8.696;2022-12-18T08:48:10;-7.40;99.90
16846;DHT22;8539;53.188;8.696;2022-12-18T08:50:36;-7.40;99.90
16846;DHT22;8539;53.188;8.696;2022-12-18T08:53:02;-7.30;99.90
16846;DHT22;8539;53.188;8.696;2022-12-18T08:55:29;-7.10;99.90
16846;DHT22;8539;53.188;8.696;2022-12-18T08:57:55;-7.10;99.90
16846;DHT22;8539;53.188;8.696;2022-12-18T09:00:21;-6.60;99.90
16846;DHT22;8539;53.188;8.696;2022-12-18T09:02:47;-6.80;99.90
16846;DHT22;8539;53.188;8.696;2022-12-18T09:05:13;-6.70;99.90
16846;DHT22;8539;53.188;8.696;2022-12-18T09:07:39;-6.60;99.90
16846;DHT22;8539;53.188;8.696;2022-12-18T09:10:06;-6.60;99.90
16846;DHT22;8539;53.188;8.696;2022-12-18T09:12:32;-6.40;99.90
16846;DHT22;8539;53.188;8.696;2022-12-18T09:14:58;-6.30;99.90
16846;DHT22;8539;53.188;8.696;2022-12-18T09:17:24;-6.20;99.90
16846;DHT22;8539;53.188;8.696;2022-12-18T09:19:50;-6.10;99.90
16846;DHT22;8539;53.188;8.696;2022-12-18T09:22:16;-6.00;99.90
16846;DHT22;8539;53.188;8.696;2022-12-18T09:24:42;-5.90;99.90
16846;DHT22;8539;53.188;8.696;2022-12-18T09:27:08;-5.80;99.90
16846;DHT22;8539;53.188;8.696;2022-12-18T09:29:34;-5.70;99.90
16846;DHT22;8539;53.188;8.696;2022-12-18T09:32:00;-5.70;99.90
16846;DHT22;8539;53.188;8.696;2022-12-18T09:34:26;-5.60;99.90
16846;DHT22;8539;53.188;8.696;2022-12-18T09:36:52;-5.60;99.90
16846;DHT22;8539;53.188;8.696;2022-12-18T09:39:18;-5.50;99.90
16846;DHT22;8539;53.188;8.696;2022-12-18T09:41:53;-5.40;99.90
16846;DHT22;8539;53.188;8.696;2022-12-18T09:44:24;-5.30;99.90
16846;DHT22;8539;53.188;8.696;2022-12-18T09:49:49;-5.20;99.90
16846;DHT22;8539;53.188;8.696;2022-12-18T09:52:39;-5.10;99.90
16846;DHT22;8539;53.188;8.696;2022-12-18T09:57:53;-5.00;99.90
16846;DHT22;8539;53.188;8.696;2022-12-18T10:00:23;-4.90;99.90
16846;DHT22;8539;53.188;8.696;2022-12-18T10:02:51;-4.90;99.90
16846;DHT22;8539;53.188;8.696;2022-12-18T10:08:20;-4.80;99.90
16846;DHT22;8539;53.188;8.696;2022-12-18T10:11:01;-4.70;99.90
16846;DHT22;8539;53.188;8.696;2022-12-18T10:18:54;-4.50;99.90
16846;DHT22;8539;53.188;8.696;2022-12-18T10:21:51;-4.30;99.90
16846;DHT22;8539;53.188;8.696;2022-12-18T10:26:47;-4.20;99.90
16846;DHT22;8539;53.188;8.696;2022-12-18T10:29:15;-4.10;99.90
16846;DHT22;8539;53.188;8.696;2022-12-18T10:31:42;-3.90;99.90
16846;DHT22;8539;53.188;8.696;2022-12-18T10:34:12;-3.80;99.90
16846;DHT22;8539;53.188;8.696;2022-12-18T10:36:41;-3.80;99.90
16846;DHT22;8539;53.188;8.696;2022-12-18T10:39:16;-3.70;99.90
16846;DHT22;8539;53.188;8.696;2022-12-18T10:41:43;-3.60;99.90
16846;DHT22;8539;53.188;8.696;2022-12-18T10:44:20;-3.50;99.90
16846;DHT22;8539;53.188;8.696;2022-12-18T10:46:54;-3.50;99.90
16846;DHT22;8539;53.188;8.696;2022-12-18T10:49:31;-3.50;99.90
16846;DHT22;8539;53.188;8.696;2022-12-18T10:52:18;-3.50;99.90
16846;DHT22;8539;53.188;8.696;2022-12-18T10:55:04;-3.50;99.90
16846;DHT22;8539;53.188;8.696;2022-12-18T10:57:37;-3.50;99.90
16846;DHT22;8539;53.188;8.696;2022-12-18T11:00:24;-3.60;99.90
16846;DHT22;8539;53.188;8.696;2022-12-18T11:02:50;-3.70;99.90
16846;DHT22;8539;53.188;8.696;2022-12-18T11:05:37;-3.70;99.90
16846;DHT22;8539;53.188;8.696;2022-12-18T11:08:03;-3.70;99.90
16846;DHT22;8539;53.188;8.696;2022-12-18T11:10:35;-3.70;99.90
16846;DHT22;8539;53.188;8.696;2022-12-18T11:13:16;-3.70;99.90
16846;DHT22;8539;53.188;8.696;2022-12-18T11:15:43;-3.70;99.90
16846;DHT22;8539;53.188;8.696;2022-12-18T11:18:26;-3.60;99.90
16846;DHT22;8539;53.188;8.696;2022-12-18T11:20:56;-3.60;99.90
16846;DHT22;8539;53.188;8.696;2022-12-18T11:23:23;-3.50;99.90
16846;DHT22;8539;53.188;8.696;2022-12-18T11:25:58;-3.40;99.90
16846;DHT22;8539;53.188;8.696;2022-12-18T11:33:40;-3.10;99.90
16846;DHT22;8539;53.188;8.696;2022-12-18T11:36:11;-2.90;99.90
16846;DHT22;8539;53.188;8.696;2022-12-18T11:38:39;-2.40;99.90
16846;DHT22;8539;53.188;8.696;2022-12-18T11:43:54;-1.50;99.90
16846;DHT22;8539;53.188;8.696;2022-12-18T11:46:26;-1.20;99.90
16846;DHT22;8539;53.188;8.696;2022-12-18T11:49:25;-0.90;99.90
16846;DHT22;8539;53.188;8.696;2022-12-18T11:52:21;-0.70;99.90
16846;DHT22;8539;53.188;8.696;2022-12-18T11:54:51;-0.50;99.90
16846;DHT22;8539;53.188;8.696;2022-12-18T11:57:35;-0.50;99.90
16846;DHT22;8539;53.188;8.696;2022-12-18T12:00:16;-0.60;99.90
16846;DHT22;8539;53.188;8.696;2022-12-18T12:13:43;-0.90;99.90
16846;DHT22;8539;53.188;8.696;2022-12-18T12:16:23;-1.10;99.90
16846;DHT22;8539;53.188;8.696;2022-12-18T12:22:13;-1.50;99.90
16846;DHT22;8539;53.188;8.696;2022-12-18T12:24:51;-1.60;99.90
16846;DHT22;8539;53.188;8.696;2022-12-18T12:30:11;-1.80;99.90
16846;DHT22;8539;53.188;8.696;2022-12-18T12:41:03;-1.80;99.90
16846;DHT22;8539;53.188;8.696;2022-12-18T12:43:44;-1.90;99.90
16846;DHT22;8539;53.188;8.696;2022-12-18T12:46:15;-1.90;99.90
16846;DHT22;8539;53.188;8.696;2022-12-18T12:49:01;-1.90;99.90
16846;DHT22;8539;53.188;8.696;2022-12-18T12:51:37;-1.90;99.90
16846;DHT22;8539;53.188;8.696;2022-12-18T12:54:17;-2.00;99.90
16846;DHT22;8539;53.188;8.696;2022-12-18T12:57:22;-2.00;99.90
16846;DHT22;8539;53.188;8.696;2022-12-18T13:07:51;-2.00;99.90
16846;DHT22;8539;53.188;8.696;2022-12-18T13:13:13;-2.20;99.90
16846;DHT22;8539;53.188;8.696;2022-12-18T13:15:42;-2.20;99.90
16846;DHT22;8539;53.188;8.696;2022-12-18T13:20:45;-2.20;99.90
16846;DHT22;8539;53.188;8.696;2022-12-18T13:31:15;-2.30;99.90
16846;DHT22;8539;53.188;8.696;2022-12-18T13:36:47;-2.30;99.90
16846;DHT22;8539;53.188;8.696;2022-12-18T13:41:40;-2.30;99.90
16846;DHT22;8539;53.188;8.696;2022-12-18T13:44:36;-2.30;99.90
16846;DHT22;8539;53.188;8.696;2022-12-18T13:47:04;-2.30;99.90
16846;DHT22;8539;53.188;8.696;2022-12-18T13:49:41;-2.30;99.90
16846;DHT22;8539;53.188;8.696;2022-12-18T13:52:17;-2.30;99.90
16846;DHT22;8539;53.188;8.696;2022-12-18T13:54:49;-2.30;99.90
16846;DHT22;8539;53.188;8.696;2022-12-18T13:59:51;-2.30;99.90
16846;DHT22;8539;53.188;8.696;2022-12-18T14:02:21;-2.30;99.90
16846;DHT22;8539;53.188;8.696;2022-12-18T14:04:49;-2.30;99.90
16846;DHT22;8539;53.188;8.696;2022-12-18T14:09:59;-2.30;99.90
16846;DHT22;8539;53.188;8.696;2022-12-18T14:12:33;-2.40;99.90
16846;DHT22;8539;53.188;8.696;2022-12-18T14:15:54;-2.40;99.90
16846;DHT22;8539;53.188;8.696;2022-12-18T14:20:58;-2.40;99.90
16846;DHT22;8539;53.188;8.696;2022-12-18T14:23:37;-2.30;99.90
16846;DHT22;8539;53.188;8.696;2022-12-18T14:26:23;-2.50;99.90
16846;DHT22;8539;53.188;8.696;2022-12-18T14:28:51;-2.50;99.90
16846;DHT22;8539;53.188;8.696;2022-12-18T14:31:23;-2.50;99.90
16846;DHT22;8539;53.188;8.696;2022-12-18T14:33:49;-2.50;99.90
16846;DHT22;8539;53.188;8.696;2022-12-18T14:36:24;-2.50;99.90
16846;DHT22;8539;53.188;8.696;2022-12-18T14:38:52;-1.70;99.90
16846;DHT22;8539;53.188;8.696;2022-12-18T14:41:20;-2.50;99.90
16846;DHT22;8539;53.188;8.696;2022-12-18T14:43:49;-2.50;99.90
16846;DHT22;8539;53.188;8.696;2022-12-18T14:46:39;-2.50;99.90
16846;DHT22;8539;53.188;8.696;2022-12-18T14:49:30;-2.50;99.90
16846;DHT22;8539;53.188;8.696;2022-12-18T14:52:02;-2.60;99.90
16846;DHT22;8539;53.188;8.696;2022-12-18T14:54:30;-2.60;99.90
16846;DHT22;8539;53.188;8.696;2022-12-18T14:57:02;-2.60;99.90
16846;DHT22;8539;53.188;8.696;2022-12-18T14:59:29;-2.60;99.90
16846;DHT22;8539;53.188;8.696;2022-12-18T15:04:34;-2.60;99.90
16846;DHT22;8539;53.188;8.696;2022-12-18T15:09:44;-2.60;99.90
16846;DHT22;8539;53.188;8.696;2022-12-18T15:12:33;-2.60;99.90
16846;DHT22;8539;53.188;8.696;2022-12-18T15:14:59;-2.60;99.90
16846;DHT22;8539;53.188;8.696;2022-12-18T15:17:26;-2.40;99.90
16846;DHT22;8539;53.188;8.696;2022-12-18T15:20:02;-2.60;99.90
16846;DHT22;8539;53.188;8.696;2022-12-18T15:22:35;-2.60;99.90
16846;DHT22;8539;53.188;8.696;2022-12-18T15:25:03;-2.00;99.90
16846;DHT22;8539;53.188;8.696;2022-12-18T15:27:35;-2.60;99.90
16846;DHT22;8539;53.188;8.696;2022-12-18T15:32:36;-2.60;99.90
16846;DHT22;8539;53.188;8.696;2022-12-18T15:35:09;-2.60;99.90
16846;DHT22;8539;53.188;8.696;2022-12-18T15:37:40;-2.60;99.90
16846;DHT22;8539;53.188;8.696;2022-12-18T15:40:08;-2.60;99.90
16846;DHT22;8539;53.188;8.696;2022-12-18T15:42:37;-2.60;99.90
16846;DHT22;8539;53.188;8.696;2022-12-18T15:45:22;-2.60;99.90
16846;DHT22;8539;53.188;8.696;2022-12-18T15:47:48;-2.60;99.90
16846;DHT22;8539;53.188;8.696;2022-12-18T15:50:13;-2.50;99.90
16846;DHT22;8539;53.188;8.696;2022-12-18T15:52:43;-2.50;99.90
16846;DHT22;8539;53.188;8.696;2022-12-18T15:55:16;-2.50;99.90
16846;DHT22;8539;53.188;8.696;2022-12-18T15:58:01;-2.50;99.90
16846;DHT22;8539;53.188;8.696;2022-12-18T16:00:27;-2.40;99.90
16846;DHT22;8539;53.188;8.696;2022-12-18T16:02:53;-2.50;99.90
16846;DHT22;8539;53.188;8.696;2022-12-18T16:05:20;-2.50;99.90
16846;DHT22;8539;53.188;8.696;2022-12-18T16:07:47;-2.20;99.90
16846;DHT22;8539;53.188;8.696;2022-12-18T16:10:14;-2.50;99.90
16846;DHT22;8539;53.188;8.696;2022-12-18T16:12:41;-2.40;99.90
16846;DHT22;8539;53.188;8.696;2022-12-18T16:15:07;-2.40;99.90
16846;DHT22;8539;53.188;8.696;2022-12-18T16:17:33;-2.40;99.90
16846;DHT22;8539;53.188;8.696;2022-12-18T16:19:59;-2.40;99.90
16846;DHT22;8539;53.188;8.696;2022-12-18T16:22:29;-2.40;99.90
16846;DHT22;8539;53.188;8.696;2022-12-18T16:24:56;-2.30;99.90
16846;DHT22;8539;53.188;8.696;2022-12-18T16:27:23;-2.30;99.90
16846;DHT22;8539;53.188;8.696;2022-12-18T16:29:50;-2.30;99.90
16846;DHT22;8539;53.188;8.696;2022-12-18T16:32:20;-1.80;99.90
16846;DHT22;8539;53.188;8.696;2022-12-18T16:34:47;-1.40;99.90
16846;DHT22;8539;53.188;8.696;2022-12-18T16:37:15;-2.20;99.90
16846;DHT22;8539;53.188;8.696;2022-12-18T16:39:41;-2.20;99.90
16846;DHT22;8539;53.188;8.696;2022-12-18T16:42:19;-1.30;99.90
16846;DHT22;8539;53.188;8.696;2022-12-18T16:44:47;-2.20;99.90
16846;DHT22;8539;53.188;8.696;2022-12-18T16:47:15;-2.20;99.90
16846;DHT22;8539;53.188;8.696;2022-12-18T16:49:43;-2.20;99.90
16846;DHT22;8539;53.188;8.696;2022-12-18T16:52:10;-1.30;99.90
16846;DHT22;8539;53.188;8.696;2022-12-18T16:54:36;-2.20;99.90
16846;DHT22;8539;53.188;8.696;2022-12-18T16:57:03;-2.10;99.90
16846;DHT22;8539;53.188;8.696;2022-12-18T16:59:30;-2.10;99.90
16846;DHT22;8539;53.188;8.696;2022-12-18T17:01:56;-1.50;99.90
16846;DHT22;8539;53.188;8.696;2022-12-18T17:04:22;-2.10;99.90
16846;DHT22;8539;53.188;8.696;2022-12-18T17:06:48;-2.10;99.90
16846;DHT22;8539;53.188;8.696;2022-12-18T17:09:22;-2.10;99.90
16846;DHT22;8539;53.188;8.696;2022-12-18T17:11:51;-2.10;99.90
16846;DHT22;8539;53.188;8.696;2022-12-18T17:14:20;-1.00;99.90
16846;DHT22;8539;53.188;8.696;2022-12-18T17:16:47;-1.00;99.90
16846;DHT22;8539;53.188;8.696;2022-12-18T17:19:13;-2.10;99.90
16846;DHT22;8539;53.188;8.696;2022-12-18T17:21:40;-2.10;99.90
16846;DHT22;8539;53.188;8.696;2022-12-18T17:24:06;-2.10;99.90
16846;DHT22;8539;53.188;8.696;2022-12-18T17:26:32;-2.10;99.90
16846;DHT22;8539;53.188;8.696;2022-12-18T17:28:58;-2.10;99.90
16846;DHT22;8539;53.188;8.696;2022-12-18T17:31:31;-2.10;99.90
16846;DHT22;8539;53.188;8.696;2022-12-18T17:34:13;-1.30;99.90
16846;DHT22;8539;53.188;8.696;2022-12-18T17:36:40;-1.70;99.90
16846;DHT22;8539;53.188;8.696;2022-12-18T17:39:07;-1.70;99.90
16846;DHT22;8539;53.188;8.696;2022-12-18T17:41:37;-2.10;99.90
16846;DHT22;8539;53.188;8.696;2022-12-18T17:44:09;-2.10;99.90
16846;DHT22;8539;53.188;8.696;2022-12-18T17:46:35;-2.10;99.90
16846;DHT22;8539;53.188;8.696;2022-12-18T17:49:02;-2.10;99.90
16846;DHT22;8539;53.188;8.696;2022-12-18T17:51:29;-2.20;99.90
16846;DHT22;8539;53.188;8.696;2022-12-18T17:53:55;-1.70;99.90